CheckWX is a tool to help pilots better visualize weather data.  It is not intended as a substitute for an official pre-flight weather briefing.

01:05:09 UTC

FASB METAR
Springbok Airport
Springbok, South Africa
Current

15 hours ago

FASB 180947Z 02009KT CAVOK 23/M01 Q1027
Observed
Jun-18 @ 09:47 UTC
Wind
  • 020° at 9 KTS
Visibility
10,000+ meters
Flight Rules
VFR
Cloud Levels
  • Clear skies
Temperature
23°C / 73°F
Dewpoint
-1°C / 30°F
Humidity
20%
Altimeter
30.32" Hg
Pressure
1026.92 hPa